Terminal Aerodrome Forecast
Issued by NWS Pocatello, ID

Home | Current Version | Previous Version | Text Only | Print | Product List | Glossary On
Versions: 1 2 3 4 5 6 7 8 9 10 11 12 13
441
FTUS45 KPIH 191127
TAFIDA
TAF
KIDA 191127Z 1912/2012 VRB05KT P6SM SKC
     FM192000 22015G25KT P6SM SCT200
     FM200200 19008KT P6SM SCT100 BKN200=

USA.gov is the U.S. government's official web portal to all federal, state and local government web resources and services.